Time;durP1;ratioP1;P1;durP2;ratioP2;P2;SDS_P1;SDS_P2;PMS_P1;PMS_P2;Temp;Humidity;BMP_temperature;BMP_pressure;BME280_temperature;BME280_humidity;BME280_pressure;Samples;Min_cycle;Max_cycle;Signal;HPM_P1;HPM_P2
2023/11/27 00:02:22;;;;;;;;;;;;;;;2.17;55.09;99634.53;4462743;32;34568;-89
2023/11/27 00:04:50;;;;;;;;;;;;;;;2.10;55.42;99630.28;4474068;32;33111;-90
2023/11/27 00:07:19;;;;;;;;;;;;;;;2.02;55.53;99625.16;4461121;32;32656;-90
2023/11/27 00:09:46;;;;;;;;;;;;;;;2.21;54.82;99633.63;4464468;32;32741;-89
2023/11/27 00:12:14;;;;;;;;;;;;;;;2.07;54.64;99632.94;4476728;32;34411;-89
2023/11/27 00:14:41;;;;;;;;;;;;;;;2.06;55.19;99636.41;4462086;32;33475;-89
2023/11/27 00:17:09;;;;;;;;;;;;;;;1.86;55.85;99633.19;4473627;32;33838;-89
2023/11/27 00:19:37;;;;;;;;;;;;;;;2.04;55.17;99628.63;4457258;32;32828;-88
2023/11/27 00:22:04;;;;;;;;;;;;;;;1.95;55.77;99633.09;4466551;32;34724;-89
2023/11/27 00:24:32;;;;;;;;;;;;;;;2.01;55.87;99638.22;4465879;32;32406;-89
2023/11/27 00:26:59;;;;;;;;;;;;;;;1.92;56.26;99640.94;4463298;32;33890;-90
2023/11/27 00:29:28;;;;;;;;;;;;;;;1.93;56.63;99629.63;4449336;32;33601;-89
2023/11/27 00:31:56;;;;;;;;;;;;;;;2.00;56.42;99633.91;4472865;32;34171;-89
2023/11/27 00:34:24;;;;;;;;;;;;;;;2.02;55.83;99648.59;4446031;32;31439;-88
2023/11/27 00:36:51;;;;;;;;;;;;;;;2.11;55.74;99647.62;4463057;32;32592;-89
2023/11/27 00:39:19;;;;;;;;;;;;;;;2.05;56.31;99645.13;4462897;32;34542;-90
2023/11/27 00:41:47;;;;;;;;;;;;;;;2.17;55.75;99638.88;4455541;32;32920;-90
2023/11/27 00:44:15;;;;;;;;;;;;;;;2.05;56.06;99634.69;4464050;32;32711;-90
2023/11/27 00:46:42;;;;;;;;;;;;;;;2.04;55.98;99649.47;4475600;32;33972;-90
2023/11/27 00:49:10;;;;;;;;;;;;;;;2.03;56.22;99636.44;4462288;32;33000;-90
2023/11/27 00:51:37;;;;;;;;;;;;;;;2.02;56.18;99645.13;4450680;32;33674;-89
2023/11/27 00:54:05;;;;;;;;;;;;;;;2.05;56.22;99645.13;4465469;32;32883;-89
2023/11/27 00:56:32;;;;;;;;;;;;;;;2.07;56.49;99648.56;4477351;32;33789;-89
2023/11/27 00:59:00;;;;;;;;;;;;;;;1.94;56.89;99646.97;4464919;32;34425;-89
2023/11/27 01:01:27;;;;;;;;;;;;;;;1.91;56.85;99641.81;4463543;32;34074;-89
2023/11/27 01:03:56;;;;;;;;;;;;;;;2.00;56.55;99631.28;4455700;32;32103;-89
2023/11/27 01:06:24;;;;;;;;;;;;;;;2.05;56.69;99630.34;4464900;32;32914;-90
2023/11/27 01:08:51;;;;;;;;;;;;;;;2.14;56.45;99634.59;4463191;32;34903;-89
2023/11/27 01:11:19;;;;;;;;;;;;;;;2.31;55.44;99627.41;4460353;32;34150;-90
2023/11/27 01:13:47;;;;;;;;;;;;;;;1.99;56.24;99616.53;4451645;32;32221;-89
2023/11/27 01:16:14;;;;;;;;;;;;;;;1.88;56.83;99614.06;4451258;32;32229;-89
2023/11/27 01:18:42;;;;;;;;;;;;;;;1.91;57.18;99615.78;4463621;32;34380;-89
2023/11/27 01:21:09;;;;;;;;;;;;;;;1.81;57.67;99606.34;4475530;32;33872;-89
2023/11/27 01:23:37;;;;;;;;;;;;;;;1.93;57.14;99609.66;4457655;32;32051;-88
2023/11/27 01:26:06;;;;;;;;;;;;;;;1.84;58.22;99609.75;4475678;32;32700;-88
2023/11/27 01:28:33;;;;;;;;;;;;;;;1.87;58.05;99609.72;4463090;32;33183;-89
2023/11/27 01:31:01;;;;;;;;;;;;;;;1.85;58.26;99608.00;4477747;32;33010;-88
2023/11/27 01:33:29;;;;;;;;;;;;;;;2.08;57.78;99603.38;4450406;32;33440;-89
2023/11/27 01:35:56;;;;;;;;;;;;;;;1.99;58.01;99606.09;4463994;32;34122;-89
2023/11/27 01:38:24;;;;;;;;;;;;;;;1.89;58.30;99596.69;4475304;32;33680;-89
2023/11/27 01:40:52;;;;;;;;;;;;;;;2.04;58.26;99597.37;4478604;32;33095;-89
2023/11/27 01:43:20;;;;;;;;;;;;;;;1.94;58.91;99600.09;4449045;32;31992;-89
2023/11/27 01:45:48;;;;;;;;;;;;;;;2.11;58.72;99598.16;4472898;32;34804;-90
2023/11/27 01:48:15;;;;;;;;;;;;;;;2.18;58.47;99596.31;4476123;32;34112;-89
2023/11/27 01:50:43;;;;;;;;;;;;;;;2.18;58.84;99589.37;4467675;32;33774;-89
2023/11/27 01:53:10;;;;;;;;;;;;;;;2.27;58.54;99586.62;4464411;32;32700;-89
2023/11/27 01:55:38;;;;;;;;;;;;;;;2.16;58.94;99591.13;4453053;32;33596;-89
2023/11/27 01:58:05;;;;;;;;;;;;;;;2.31;58.80;99582.25;4478186;32;33847;-89
2023/11/27 02:00:33;;;;;;;;;;;;;;;2.25;59.01;99578.00;4465309;32;34239;-89
2023/11/27 02:03:01;;;;;;;;;;;;;;;2.17;59.22;99582.44;4464629;32;33919;-89
2023/11/27 02:05:30;;;;;;;;;;;;;;;2.27;59.10;99578.81;4464241;32;34059;-89
2023/11/27 02:07:58;;;;;;;;;;;;;;;2.36;58.97;99592.62;4462457;32;34093;-88
2023/11/27 02:10:26;;;;;;;;;;;;;;;2.33;59.07;99592.66;4473802;32;33942;-89
2023/11/27 02:12:54;;;;;;;;;;;;;;;2.37;59.29;99589.13;4469200;32;33086;-90
2023/11/27 02:15:21;;;;;;;;;;;;;;;2.41;59.31;99580.38;4476990;32;34032;-89
2023/11/27 02:17:50;;;;;;;;;;;;;;;2.39;59.63;99579.56;4477062;32;32650;-89
2023/11/27 02:20:17;;;;;;;;;;;;;;;2.39;59.75;99574.34;4464798;32;32598;-89
2023/11/27 02:22:45;;;;;;;;;;;;;;;2.50;59.33;99573.28;4464071;32;32956;-89
2023/11/27 02:25:13;;;;;;;;;;;;;;;2.55;59.54;99573.22;4473656;32;34172;-90
2023/11/27 02:27:41;;;;;;;;;;;;;;;2.70;58.68;99564.31;4464321;32;34376;-90
2023/11/27 02:30:09;;;;;;;;;;;;;;;2.77;58.88;99564.19;4472836;32;34277;-90
2023/11/27 02:32:37;;;;;;;;;;;;;;;2.80;58.37;99565.87;4458512;32;33115;-90
2023/11/27 02:35:05;;;;;;;;;;;;;;;2.64;59.04;99567.88;4468564;32;33445;-90
2023/11/27 02:37:32;;;;;;;;;;;;;;;2.74;59.38;99563.38;4460463;32;34179;-90
2023/11/27 02:40:00;;;;;;;;;;;;;;;2.74;58.74;99556.41;4475288;32;34332;-89
2023/11/27 02:42:28;;;;;;;;;;;;;;;2.83;59.22;99558.87;4475732;32;33048;-90
2023/11/27 02:44:56;;;;;;;;;;;;;;;2.75;59.13;99558.16;4462295;32;32537;-90
2023/11/27 02:47:26;;;;;;;;;;;;;;;2.98;58.61;99562.12;4476058;32;32633;-89
2023/11/27 02:49:53;;;;;;;;;;;;;;;2.99;58.39;99556.00;4464502;32;33063;-88
2023/11/27 02:52:21;;;;;;;;;;;;;;;2.89;58.89;99549.22;4461892;32;32337;-89
2023/11/27 02:54:48;;;;;;;;;;;;;;;2.90;58.76;99544.00;4449072;32;32702;-88
2023/11/27 02:57:16;;;;;;;;;;;;;;;2.89;58.91;99547.47;4473323;32;33870;-88
2023/11/27 02:59:45;;;;;;;;;;;;;;;2.81;59.68;99544.16;4476763;32;32385;-89
2023/11/27 03:02:12;;;;;;;;;;;;;;;2.83;59.67;99548.44;4474675;32;33199;-88
2023/11/27 03:04:40;;;;;;;;;;;;;;;3.08;59.28;99534.97;4475900;32;33707;-88
2023/11/27 03:07:09;;;;;;;;;;;;;;;3.05;59.24;99542.88;4437605;32;33920;-88
2023/11/27 03:09:37;;;;;;;;;;;;;;;3.03;59.79;99534.22;4464277;32;32891;-88
2023/11/27 03:12:05;;;;;;;;;;;;;;;3.21;59.10;99526.06;4471528;32;33116;-88
2023/11/27 03:14:32;;;;;;;;;;;;;;;3.27;58.63;99518.09;4463577;32;35266;-88
2023/11/27 03:17:00;;;;;;;;;;;;;;;3.20;59.53;99515.66;4470765;32;34215;-88
2023/11/27 03:19:28;;;;;;;;;;;;;;;3.09;59.91;99515.88;4462366;32;33445;-88
2023/11/27 03:22:11;;;;;;;;;;;;;;;3.42;59.18;99511.75;4477449;32;33353;-88
2023/11/27 03:24:38;;;;;;;;;;;;;;;3.44;59.20;99514.34;4463950;32;32467;-88
2023/11/27 03:27:06;;;;;;;;;;;;;;;3.56;58.96;99504.53;4464970;32;34913;-88
2023/11/27 03:29:33;;;;;;;;;;;;;;;3.55;58.95;99509.75;4461887;32;33255;-88
2023/11/27 03:32:00;;;;;;;;;;;;;;;3.54;59.08;99502.81;4465003;32;31964;-89
2023/11/27 03:34:28;;;;;;;;;;;;;;;3.47;59.30;99501.25;4464132;32;32785;-90
2023/11/27 03:36:56;;;;;;;;;;;;;;;3.12;60.03;99504.50;4474980;32;34530;-88
2023/11/27 03:39:23;;;;;;;;;;;;;;;2.96;60.77;99496.94;4473170;31;33110;-88
2023/11/27 03:41:50;;;;;;;;;;;;;;;3.33;59.98;99489.31;4473291;32;33690;-88
2023/11/27 03:44:18;;;;;;;;;;;;;;;3.44;59.97;99494.31;4455628;32;33382;-88
2023/11/27 03:46:46;;;;;;;;;;;;;;;3.40;60.27;99491.78;4465884;32;32712;-88
2023/11/27 03:49:13;;;;;;;;;;;;;;;3.42;60.35;99479.56;4473638;32;33938;-89
2023/11/27 03:51:41;;;;;;;;;;;;;;;3.20;60.83;99480.00;4474796;32;32294;-89
2023/11/27 03:54:11;;;;;;;;;;;;;;;3.01;61.36;99468.19;4462128;32;32439;-88
2023/11/27 03:56:40;;;;;;;;;;;;;;;3.11;61.62;99463.66;4476867;32;33912;-89
2023/11/27 03:59:08;;;;;;;;;;;;;;;3.11;61.25;99463.66;4465041;32;32607;-89
2023/11/27 04:01:35;;;;;;;;;;;;;;;3.16;61.76;99452.22;4465347;32;31831;-89
2023/11/27 04:04:03;;;;;;;;;;;;;;;3.14;61.85;99459.25;4471225;32;32910;-89
2023/11/27 04:06:34;;;;;;;;;;;;;;;3.18;61.97;99458.31;4455468;32;32900;-88
2023/11/27 04:09:01;;;;;;;;;;;;;;;3.30;61.71;99447.59;4466597;32;34923;-89
2023/11/27 04:11:31;;;;;;;;;;;;;;;3.32;62.11;99448.44;4467244;32;32940;-89
2023/11/27 04:13:58;;;;;;;;;;;;;;;3.33;62.08;99444.94;4474915;32;33060;-88
2023/11/27 04:16:25;;;;;;;;;;;;;;;3.40;61.68;99447.44;4471480;32;32618;-88
2023/11/27 04:18:53;;;;;;;;;;;;;;;3.35;61.94;99457.97;4454096;32;32919;-88
2023/11/27 04:21:20;;;;;;;;;;;;;;;3.45;61.80;99459.47;4462163;32;34083;-88
2023/11/27 04:23:48;;;;;;;;;;;;;;;3.45;61.91;99446.44;4473935;32;34142;-88
2023/11/27 04:26:16;;;;;;;;;;;;;;;3.41;62.68;99443.91;4462334;32;34176;-87
2023/11/27 04:28:43;;;;;;;;;;;;;;;3.45;62.47;99441.22;4462212;32;34094;-87
2023/11/27 04:31:10;;;;;;;;;;;;;;;3.42;62.77;99438.69;4473404;32;33318;-87
2023/11/27 04:33:38;;;;;;;;;;;;;;;3.54;62.16;99446.25;4461129;32;33351;-90
2023/11/27 04:36:06;;;;;;;;;;;;;;;3.63;61.94;99436.50;4450414;32;33446;-90
2023/11/27 04:38:33;;;;;;;;;;;;;;;3.66;61.88;99432.09;4466797;32;33491;-90
2023/11/27 04:41:02;;;;;;;;;;;;;;;3.41;62.91;99434.34;4461013;32;32757;-89
2023/11/27 04:43:29;;;;;;;;;;;;;;;3.68;62.41;99445.97;4461352;32;34243;-89
2023/11/27 04:45:57;;;;;;;;;;;;;;;3.58;62.47;99444.44;4462502;32;34147;-90
2023/11/27 04:48:26;;;;;;;;;;;;;;;3.73;62.32;99444.09;4461826;32;32628;-89
2023/11/27 04:50:53;;;;;;;;;;;;;;;3.71;62.22;99440.69;4473443;32;33475;-89
2023/11/27 04:53:21;;;;;;;;;;;;;;;3.66;62.65;99445.16;4462540;32;34304;-89
2023/11/27 04:55:48;;;;;;;;;;;;;;;3.73;62.43;99451.94;4465298;32;34273;-89
2023/11/27 04:58:16;;;;;;;;;;;;;;;3.73;62.47;99449.31;4461387;32;33597;-89
2023/11/27 05:00:43;;;;;;;;;;;;;;;3.83;62.00;99453.44;4456012;32;32315;-89
2023/11/27 05:03:11;;;;;;;;;;;;;;;3.80;62.40;99452.69;4462022;32;33183;-89
2023/11/27 05:05:38;;;;;;;;;;;;;;;3.80;62.83;99448.31;4463898;32;34349;-89
2023/11/27 05:08:06;;;;;;;;;;;;;;;4.00;61.99;99452.25;4457063;32;34904;-89
2023/11/27 05:10:38;;;;;;;;;;;;;;;3.99;62.35;99453.13;4475990;32;31733;-89
2023/11/27 05:13:06;;;;;;;;;;;;;;;4.04;62.29;99448.66;4477723;32;32683;-89
2023/11/27 05:15:33;;;;;;;;;;;;;;;4.08;61.76;99442.44;4476779;32;34250;-89
2023/11/27 05:18:03;;;;;;;;;;;;;;;4.09;62.12;99447.66;4460711;32;33326;-89
2023/11/27 05:20:30;;;;;;;;;;;;;;;3.83;63.07;99445.63;4462231;32;32352;-89
2023/11/27 05:22:59;;;;;;;;;;;;;;;4.03;62.66;99439.94;4463428;32;36504;-89
2023/11/27 05:25:27;;;;;;;;;;;;;;;4.11;62.52;99439.78;4461766;32;33071;-89
2023/11/27 05:27:55;;;;;;;;;;;;;;;4.12;62.14;99446.72;4479385;32;34754;-89
2023/11/27 05:30:23;;;;;;;;;;;;;;;4.01;62.77;99443.50;4467732;32;33395;-89
2023/11/27 05:32:51;;;;;;;;;;;;;;;4.00;62.96;99442.66;4466180;32;33952;-89
2023/11/27 05:35:19;;;;;;;;;;;;;;;4.15;62.79;99448.41;4462566;32;34269;-90
2023/11/27 05:37:47;;;;;;;;;;;;;;;4.44;61.38;99442.50;4462715;32;32985;-90
2023/11/27 05:40:15;;;;;;;;;;;;;;;4.52;60.92;99441.41;4463224;32;33479;-90
2023/11/27 05:42:43;;;;;;;;;;;;;;;4.44;61.43;99440.72;4466138;32;32971;-90
2023/11/27 05:45:11;;;;;;;;;;;;;;;4.37;61.81;99432.19;4463430;32;34674;-90
2023/11/27 05:47:39;;;;;;;;;;;;;;;4.29;62.29;99439.34;4466023;32;33461;-90
2023/11/27 05:50:09;;;;;;;;;;;;;;;4.38;61.76;99438.28;4464687;32;34030;-89
2023/11/27 05:52:37;;;;;;;;;;;;;;;4.43;62.02;99438.16;4451536;32;33590;-89
2023/11/27 05:55:05;;;;;;;;;;;;;;;4.48;62.10;99446.75;4454068;32;33565;-89
2023/11/27 05:57:34;;;;;;;;;;;;;;;4.50;62.12;99452.78;4464143;32;33591;-91
2023/11/27 06:00:05;;;;;;;;;;;;;;;4.61;61.56;99456.00;4450296;32;32162;-91
2023/11/27 06:02:38;;;;;;;;;;;;;;;4.68;61.60;99454.94;4458483;32;32929;-89
2023/11/27 06:05:06;;;;;;;;;;;;;;;4.77;61.14;99451.25;4448049;32;33029;-91
2023/11/27 06:07:33;;;;;;;;;;;;;;;4.94;60.03;99448.16;4464575;32;33902;-91
2023/11/27 06:10:02;;;;;;;;;;;;;;;5.01;59.91;99441.88;4467616;32;32142;-90
2023/11/27 06:12:31;;;;;;;;;;;;;;;4.92;60.00;99445.59;4450576;32;33492;-90
2023/11/27 06:14:58;;;;;;;;;;;;;;;4.46;61.65;99444.16;4456689;32;33307;-89
2023/11/27 06:17:25;;;;;;;;;;;;;;;4.36;62.04;99445.28;4454496;32;34397;-90
2023/11/27 06:19:53;;;;;;;;;;;;;;;4.37;61.99;99452.25;4451108;32;33356;-89
2023/11/27 06:22:20;;;;;;;;;;;;;;;4.42;62.14;99454.75;4476931;32;33788;-90
2023/11/27 06:24:48;;;;;;;;;;;;;;;4.57;61.72;99443.91;4462649;32;33225;-90
2023/11/27 06:27:15;;;;;;;;;;;;;;;4.52;61.78;99456.25;4456148;32;32921;-89
2023/11/27 06:29:43;;;;;;;;;;;;;;;4.49;61.76;99464.16;4451515;32;33164;-90
2023/11/27 06:32:10;;;;;;;;;;;;;;;4.55;61.54;99469.22;4451947;32;32905;-89
2023/11/27 06:34:38;;;;;;;;;;;;;;;4.43;62.24;99475.63;4453283;32;33541;-90
2023/11/27 06:37:07;;;;;;;;;;;;;;;4.59;61.53;99469.09;4462983;32;34757;-89
2023/11/27 06:39:34;;;;;;;;;;;;;;;4.72;61.15;99474.91;4451060;32;32739;-89
2023/11/27 06:42:03;;;;;;;;;;;;;;;4.70;60.95;99471.47;4463690;32;33231;-90
2023/11/27 06:44:31;;;;;;;;;;;;;;;4.64;61.73;99474.22;4478918;31;33143;-89
2023/11/27 06:46:58;;;;;;;;;;;;;;;4.46;62.06;99472.06;4461464;32;33526;-90
2023/11/27 06:49:26;;;;;;;;;;;;;;;4.69;61.26;99477.56;4452168;32;32298;-89
2023/11/27 06:51:54;;;;;;;;;;;;;;;4.70;61.85;99479.31;4462524;32;33848;-89
2023/11/27 06:54:21;;;;;;;;;;;;;;;4.66;61.83;99475.06;4461659;32;33452;-89
2023/11/27 06:56:49;;;;;;;;;;;;;;;4.71;61.65;99488.03;4463509;32;33164;-89
2023/11/27 06:59:16;;;;;;;;;;;;;;;4.83;61.38;99477.22;4460429;32;32006;-90
2023/11/27 07:01:44;;;;;;;;;;;;;;;4.71;61.65;99473.19;4462383;32;33898;-89
2023/11/27 07:04:12;;;;;;;;;;;;;;;4.68;62.00;99469.78;4465735;32;35474;-89
2023/11/27 07:06:40;;;;;;;;;;;;;;;4.75;61.60;99469.59;4469449;32;34379;-89
2023/11/27 07:09:07;;;;;;;;;;;;;;;4.84;61.37;99458.00;4463087;32;32509;-90
2023/11/27 07:11:35;;;;;;;;;;;;;;;4.80;61.72;99451.19;4463821;32;33458;-90
2023/11/27 07:14:03;;;;;;;;;;;;;;;4.86;61.54;99457.09;4469265;32;35456;-90
2023/11/27 07:16:30;;;;;;;;;;;;;;;4.75;61.65;99459.13;4463979;32;34128;-89
2023/11/27 07:18:58;;;;;;;;;;;;;;;4.86;61.53;99453.63;4449330;32;33418;-91
2023/11/27 07:21:27;;;;;;;;;;;;;;;4.91;61.59;99449.12;4461785;32;33336;-90
2023/11/27 07:23:55;;;;;;;;;;;;;;;4.74;62.51;99452.16;4459615;32;33820;-90
2023/11/27 07:26:26;;;;;;;;;;;;;;;4.91;61.03;99437.81;4465404;32;34166;-90
2023/11/27 07:28:54;;;;;;;;;;;;;;;4.96;61.16;99459.47;4464033;32;31905;-90
2023/11/27 07:31:27;;;;;;;;;;;;;;;5.03;60.90;99448.81;4474506;32;32259;-90
2023/11/27 07:33:56;;;;;;;;;;;;;;;5.07;61.19;99449.56;4461152;32;33059;-90
2023/11/27 07:36:23;;;;;;;;;;;;;;;4.88;61.82;99443.97;4470900;32;34366;-90
2023/11/27 07:38:51;;;;;;;;;;;;;;;4.90;62.03;99441.31;4462850;32;33970;-90
2023/11/27 07:41:20;;;;;;;;;;;;;;;5.20;61.19;99439.63;4447960;32;33377;-90
2023/11/27 07:43:50;;;;;;;;;;;;;;;5.16;61.42;99438.84;4464868;32;33804;-90
2023/11/27 07:46:18;;;;;;;;;;;;;;;5.01;61.66;99434.03;4453694;32;33342;-90
2023/11/27 07:48:46;;;;;;;;;;;;;;;5.02;61.59;99436.59;4449873;32;32108;-90
2023/11/27 07:51:14;;;;;;;;;;;;;;;5.04;61.55;99432.22;4458877;32;33589;-90
2023/11/27 07:53:42;;;;;;;;;;;;;;;5.34;60.83;99421.78;4452634;32;33230;-90
2023/11/27 07:56:10;;;;;;;;;;;;;;;5.30;60.59;99425.38;4476332;32;33858;-90
2023/11/27 07:58:40;;;;;;;;;;;;;;;5.29;60.78;99424.53;4475811;32;33485;-90
2023/11/27 08:01:08;;;;;;;;;;;;;;;5.29;61.11;99423.66;4474835;32;33596;-90
2023/11/27 08:03:35;;;;;;;;;;;;;;;5.25;61.10;99428.13;4467678;32;34970;-90
2023/11/27 08:06:04;;;;;;;;;;;;;;;5.23;61.41;99424.72;4449357;32;33312;-90
2023/11/27 08:08:31;;;;;;;;;;;;;;;5.34;61.22;99422.63;4460889;32;33818;-89
2023/11/27 08:10:59;;;;;;;;;;;;;;;5.52;60.99;99417.78;4461980;32;33856;-90
2023/11/27 08:13:26;;;;;;;;;;;;;;;5.80;59.67;99423.91;4462587;32;34094;-90
2023/11/27 08:15:55;;;;;;;;;;;;;;;5.68;59.77;99423.41;4448257;32;33048;-90
2023/11/27 08:18:26;;;;;;;;;;;;;;;5.49;60.59;99425.72;4469624;32;33147;-90
2023/11/27 08:20:53;;;;;;;;;;;;;;;5.56;60.79;99432.50;4457485;32;33157;-90
2023/11/27 08:23:21;;;;;;;;;;;;;;;5.61;60.60;99425.38;4461468;32;33502;-90
2023/11/27 08:25:48;;;;;;;;;;;;;;;5.54;61.23;99423.81;4447665;32;33176;-90
2023/11/27 08:28:16;;;;;;;;;;;;;;;5.73;60.24;99414.50;4462375;32;32229;-90
2023/11/27 08:30:45;;;;;;;;;;;;;;;5.67;60.91;99425.19;4459851;32;34072;-90
2023/11/27 08:33:13;;;;;;;;;;;;;;;5.59;61.12;99427.16;4450167;32;33197;-90
2023/11/27 08:35:41;;;;;;;;;;;;;;;5.65;60.45;99432.25;4448549;32;33337;-90
2023/11/27 08:38:09;;;;;;;;;;;;;;;5.71;61.01;99425.97;4464567;32;35140;-89
2023/11/27 08:40:37;;;;;;;;;;;;;;;5.67;61.09;99421.72;4476429;32;33967;-89
2023/11/27 08:43:05;;;;;;;;;;;;;;;5.73;60.42;99430.22;4462440;32;34564;-88
2023/11/27 08:45:33;;;;;;;;;;;;;;;5.74;60.60;99425.84;4463142;32;34049;-88
2023/11/27 08:48:01;;;;;;;;;;;;;;;5.67;60.96;99435.66;4465497;32;33227;-90
2023/11/27 08:50:36;;;;;;;;;;;;;;;5.66;60.97;99431.34;4463775;32;34718;-88
2023/11/27 08:53:07;;;;;;;;;;;;;;;5.68;61.00;99434.75;4475464;32;33512;-88
2023/11/27 08:55:35;;;;;;;;;;;;;;;5.76;60.98;99432.75;4475272;32;35104;-87
2023/11/27 08:58:03;;;;;;;;;;;;;;;5.75;61.06;99428.44;4475717;32;32901;-88
2023/11/27 09:00:32;;;;;;;;;;;;;;;5.85;60.84;99427.25;4463671;32;32909;-88
2023/11/27 09:03:00;;;;;;;;;;;;;;;5.91;60.30;99423.56;4461435;32;33278;-87
2023/11/27 09:05:30;;;;;;;;;;;;;;;5.68;61.61;99429.50;4465910;32;33930;-88
2023/11/27 09:08:04;;;;;;;;;;;;;;;5.76;60.66;99424.06;4464441;32;32288;-88
2023/11/27 09:10:34;;;;;;;;;;;;;;;5.81;60.44;99417.75;4473529;32;33490;-87
2023/11/27 09:13:05;;;;;;;;;;;;;;;5.81;60.90;99417.75;4475651;32;34301;-88
2023/11/27 09:15:34;;;;;;;;;;;;;;;5.97;60.07;99414.69;4474550;32;34936;-88
2023/11/27 09:18:01;;;;;;;;;;;;;;;5.83;60.29;99412.47;4475956;32;32615;-88
2023/11/27 09:20:29;;;;;;;;;;;;;;;5.93;60.51;99416.53;4476072;32;34645;-88
2023/11/27 09:22:57;;;;;;;;;;;;;;;5.87;60.38;99408.84;4463296;32;33953;-87
2023/11/27 09:25:25;;;;;;;;;;;;;;;5.79;61.33;99413.47;4461862;32;34444;-87
2023/11/27 09:27:53;;;;;;;;;;;;;;;5.72;62.10;99411.94;4477970;32;33828;-87
2023/11/27 09:30:20;;;;;;;;;;;;;;;6.20;60.22;99403.50;4463690;32;33797;-87
2023/11/27 09:32:51;;;;;;;;;;;;;;;6.28;60.39;99396.25;4465081;32;32598;-87
2023/11/27 09:35:19;;;;;;;;;;;;;;;6.23;60.73;99396.41;4479073;32;34193;-87
2023/11/27 09:37:47;;;;;;;;;;;;;;;6.24;60.57;99395.47;4450072;32;32212;-87
2023/11/27 09:40:15;;;;;;;;;;;;;;;6.15;60.96;99387.91;4462529;32;33376;-87
2023/11/27 09:42:43;;;;;;;;;;;;;;;5.74;61.73;99391.78;4477364;32;35044;-88
2023/11/27 09:45:18;;;;;;;;;;;;;;;6.08;61.19;99384.63;4476800;32;34869;-87
2023/11/27 09:47:48;;;;;;;;;;;;;;;5.77;62.16;99389.94;4462315;32;32618;-87
2023/11/27 09:50:18;;;;;;;;;;;;;;;6.04;61.54;99384.78;4475401;32;33290;-87
2023/11/27 09:52:49;;;;;;;;;;;;;;;6.07;61.22;99382.06;4477941;32;34446;-87
2023/11/27 09:55:17;;;;;;;;;;;;;;;6.10;61.08;99376.72;4461579;32;33373;-87
2023/11/27 09:57:49;;;;;;;;;;;;;;;5.95;61.21;99382.47;4474308;31;35052;-87
2023/11/27 10:00:21;;;;;;;;;;;;;;;5.63;62.50;99379.88;4467100;32;33877;-88
2023/11/27 10:02:49;;;;;;;;;;;;;;;6.04;61.63;99377.78;4452410;32;33335;-87
2023/11/27 10:05:18;;;;;;;;;;;;;;;5.73;62.26;99380.44;4463429;32;32677;-88
2023/11/27 10:07:46;;;;;;;;;;;;;;;5.91;61.89;99371.16;4448005;32;32431;-88
2023/11/27 10:10:20;;;;;;;;;;;;;;;5.79;61.77;99372.44;4478131;32;33488;-88
2023/11/27 10:12:47;;;;;;;;;;;;;;;6.03;61.85;99377.81;4465551;32;32936;-86
2023/11/27 10:15:16;;;;;;;;;;;;;;;5.97;62.19;99375.37;4460382;32;33744;-86
2023/11/27 10:17:45;;;;;;;;;;;;;;;6.21;61.42;99369.34;4474659;32;33297;-88
2023/11/27 10:20:13;;;;;;;;;;;;;;;5.89;61.95;99358.13;4479465;32;34095;-88
2023/11/27 10:22:42;;;;;;;;;;;;;;;5.58;63.14;99368.69;4478496;32;35528;-88
2023/11/27 10:25:13;;;;;;;;;;;;;;;5.52;64.10;99368.03;4449912;32;33836;-88
2023/11/27 10:27:42;;;;;;;;;;;;;;;5.64;64.00;99360.63;4462043;32;33425;-88
2023/11/27 10:30:20;;;;;;;;;;;;;;;5.68;63.97;99357.94;4466583;32;33841;-88
2023/11/27 10:32:48;;;;;;;;;;;;;;;5.84;63.76;99354.81;4476254;32;33775;-88
2023/11/27 10:35:17;;;;;;;;;;;;;;;5.82;63.73;99347.88;4476545;32;34047;-87
2023/11/27 10:37:44;;;;;;;;;;;;;;;6.02;63.64;99344.66;4460766;32;31432;-88
2023/11/27 10:40:14;;;;;;;;;;;;;;;6.24;62.53;99340.41;4476355;32;33418;-88
2023/11/27 10:42:47;;;;;;;;;;;;;;;6.55;62.14;99328.88;4465180;32;34770;-88
2023/11/27 10:45:19;;;;;;;;;;;;;;;6.49;62.46;99326.47;4449002;32;32570;-89
2023/11/27 10:47:47;;;;;;;;;;;;;;;6.33;63.56;99323.53;4461784;32;34028;-87
2023/11/27 10:50:17;;;;;;;;;;;;;;;6.46;63.83;99314.34;4478227;32;34434;-87
2023/11/27 10:52:48;;;;;;;;;;;;;;;6.67;63.59;99315.34;4464241;32;34304;-87
2023/11/27 10:55:17;;;;;;;;;;;;;;;6.26;64.77;99316.75;4476294;32;33954;-87
2023/11/27 10:57:47;;;;;;;;;;;;;;;6.61;64.46;99318.19;4462434;32;33425;-87
2023/11/27 11:01:01;;;;;;;;;;;;;;;6.75;63.61;99315.94;4477427;32;33052;-88
2023/11/27 11:03:06;;;;;;;;;;;;;;;6.60;64.79;99314.72;4457496;32;33112;-89
2023/11/27 11:05:36;;;;;;;;;;;;;;;6.78;64.39;99302.69;4476448;32;32484;-88
2023/11/27 11:08:04;;;;;;;;;;;;;;;6.75;63.41;99309.84;4464659;32;33194;-88
2023/11/27 11:10:31;;;;;;;;;;;;;;;6.73;63.73;99302.00;4464756;32;34887;-86
2023/11/27 11:13:01;;;;;;;;;;;;;;;6.74;64.45;99305.47;4464629;32;33624;-87
2023/11/27 11:15:50;;;;;;;;;;;;;;;6.83;63.57;99302.50;4459719;32;34157;-88
2023/11/27 11:18:38;;;;;;;;;;;;;;;6.90;63.86;99297.00;4464733;32;33479;-87
2023/11/27 11:21:06;;;;;;;;;;;;;;;6.89;63.32;99295.28;4472621;31;34180;-87
2023/11/27 11:23:38;;;;;;;;;;;;;;;6.88;63.32;99288.34;4475438;32;34377;-87
2023/11/27 11:26:21;;;;;;;;;;;;;;;6.78;64.09;99286.09;4467070;32;33482;-87
2023/11/27 11:29:13;;;;;;;;;;;;;;;6.58;65.16;99284.19;4477639;32;32858;-88
2023/11/27 11:32:03;;;;;;;;;;;;;;;7.01;64.28;99290.50;4464491;32;33199;-88
2023/11/27 11:34:34;;;;;;;;;;;;;;;7.07;64.33;99277.13;4476782;32;33635;-88
2023/11/27 11:37:04;;;;;;;;;;;;;;;7.38;62.85;99277.69;4462344;32;33646;-87
2023/11/27 11:39:33;;;;;;;;;;;;;;;7.17;63.19;99283.78;4461403;32;33880;-88
2023/11/27 11:42:02;;;;;;;;;;;;;;;6.98;63.61;99272.22;4469064;32;34498;-87
2023/11/27 11:44:33;;;;;;;;;;;;;;;6.91;64.58;99268.97;4467688;31;33796;-87
2023/11/27 11:47:19;;;;;;;;;;;;;;;7.00;64.57;99266.00;4462683;32;34237;-88
2023/11/27 11:49:49;;;;;;;;;;;;;;;7.03;64.48;99258.03;4473027;32;32315;-87
2023/11/27 11:52:18;;;;;;;;;;;;;;;7.27;63.50;99251.00;4463243;32;34113;-87
2023/11/27 11:54:47;;;;;;;;;;;;;;;7.41;63.38;99245.19;4461052;32;33104;-88
2023/11/27 11:57:25;;;;;;;;;;;;;;;7.52;63.34;99237.72;4476634;31;34052;-88
2023/11/27 11:59:53;;;;;;;;;;;;;;;7.11;65.25;99236.72;4448898;32;31729;-88
2023/11/27 12:05:53;;;;;;;;;;;;;;;6.91;65.89;99233.09;4459103;32;34031;-88
2023/11/27 12:08:25;;;;;;;;;;;;;;;7.20;64.75;99220.62;4457127;32;33135;-87
2023/11/27 12:10:53;;;;;;;;;;;;;;;7.10;64.35;99224.53;4459135;32;32369;-88
2023/11/27 12:13:34;;;;;;;;;;;;;;;7.36;63.79;99215.63;4461996;32;34364;-88
2023/11/27 12:16:11;;;;;;;;;;;;;;;7.48;63.38;99204.62;4452448;32;33404;-85
2023/11/27 12:18:47;;;;;;;;;;;;;;;7.85;62.52;99198.69;4455663;32;32720;-88
2023/11/27 12:21:16;;;;;;;;;;;;;;;7.96;61.94;99196.47;4446647;32;32551;-85
2023/11/27 12:23:47;;;;;;;;;;;;;;;8.06;61.92;99193.44;4462640;32;35116;-85
2023/11/27 12:26:22;;;;;;;;;;;;;;;8.05;61.63;99194.38;4448874;32;34355;-85
2023/11/27 12:28:51;;;;;;;;;;;;;;;8.28;61.01;99188.97;4446457;32;34596;-85
2023/11/27 12:31:27;;;;;;;;;;;;;;;8.07;61.34;99187.25;4476282;32;32196;-85
2023/11/27 12:33:56;;;;;;;;;;;;;;;7.85;61.77;99182.94;4451972;32;33949;-85
2023/11/27 12:36:24;;;;;;;;;;;;;;;8.02;61.03;99184.81;4460994;32;33606;-84
2023/11/27 12:38:52;;;;;;;;;;;;;;;7.93;62.14;99180.00;4459492;32;33731;-85
2023/11/27 12:41:31;;;;;;;;;;;;;;;8.00;61.78;99175.31;4469365;32;33423;-85
2023/11/27 12:44:20;;;;;;;;;;;;;;;8.15;61.20;99166.75;4445881;32;33425;-85
2023/11/27 12:46:48;;;;;;;;;;;;;;;8.10;61.71;99161.69;4469899;32;34468;-85
2023/11/27 12:49:20;;;;;;;;;;;;;;;8.03;61.71;99159.41;4450396;32;34280;-85
2023/11/27 12:51:51;;;;;;;;;;;;;;;8.19;60.77;99160.44;4461753;32;31155;-85
2023/11/27 12:54:20;;;;;;;;;;;;;;;8.15;60.30;99149.19;4453849;32;33845;-85
2023/11/27 12:56:50;;;;;;;;;;;;;;;8.21;60.24;99158.56;4471322;31;34574;-84
2023/11/27 12:59:18;;;;;;;;;;;;;;;8.37;59.88;99148.28;4470716;32;34908;-85
2023/11/27 13:01:57;;;;;;;;;;;;;;;8.33;60.09;99147.53;4474213;32;32575;-85
2023/11/27 13:04:31;;;;;;;;;;;;;;;8.53;59.66;99148.44;4454574;32;33288;-85
2023/11/27 13:07:05;;;;;;;;;;;;;;;8.74;58.45;99130.81;4465738;32;33248;-85
2023/11/27 13:09:34;;;;;;;;;;;;;;;8.54;59.19;99129.94;4458612;32;33957;-85
2023/11/27 13:12:25;;;;;;;;;;;;;;;8.58;58.88;99125.37;4460911;32;33091;-85